sensor_id;sensor_type;location;lat;lon;timestamp;pressure;altitude;pressure_sealevel;temperature;humidity
21182;BME280;10749;46.296;7.524;2023-02-10T00:00:09;96640.78;;;1.66;32.56
21182;BME280;10749;46.296;7.524;2023-02-10T00:02:35;96643.41;;;1.66;32.54
21182;BME280;10749;46.296;7.524;2023-02-10T00:05:00;96647.72;;;1.67;32.46
21182;BME280;10749;46.296;7.524;2023-02-10T00:07:25;96654.53;;;1.70;32.18
21182;BME280;10749;46.296;7.524;2023-02-10T00:09:50;96652.25;;;1.64;32.41
21182;BME280;10749;46.296;7.524;2023-02-10T00:12:16;96660.09;;;1.64;32.09
21182;BME280;10749;46.296;7.524;2023-02-10T00:14:41;96659.41;;;1.60;32.37
21182;BME280;10749;46.296;7.524;2023-02-10T00:17:07;96661.72;;;1.49;32.66
21182;BME280;10749;46.296;7.524;2023-02-10T00:19:32;96654.97;;;1.45;32.82
21182;BME280;10749;46.296;7.524;2023-02-10T00:21:59;96665.41;;;1.45;32.60
21182;BME280;10749;46.296;7.524;2023-02-10T00:24:25;96670.06;;;1.40;32.84
21182;BME280;10749;46.296;7.524;2023-02-10T00:26:50;96663.13;;;1.39;33.03
21182;BME280;10749;46.296;7.524;2023-02-10T00:29:16;96667.44;;;1.40;33.10
21182;BME280;10749;46.296;7.524;2023-02-10T00:31:42;96662.38;;;1.37;33.25
21182;BME280;10749;46.296;7.524;2023-02-10T00:34:12;96664.06;;;1.38;33.02
21182;BME280;10749;46.296;7.524;2023-02-10T00:36:38;96660.84;;;1.33;33.45
21182;BME280;10749;46.296;7.524;2023-02-10T00:39:03;96660.03;;;1.32;33.05
21182;BME280;10749;46.296;7.524;2023-02-10T00:41:28;96662.75;;;1.29;33.35
21182;BME280;10749;46.296;7.524;2023-02-10T00:43:54;96663.50;;;1.16;33.48
21182;BME280;10749;46.296;7.524;2023-02-10T00:46:20;96660.03;;;1.15;33.28
21182;BME280;10749;46.296;7.524;2023-02-10T00:48:46;96659.25;;;1.13;33.02
21182;BME280;10749;46.296;7.524;2023-02-10T00:51:12;96664.41;;;1.15;33.13
21182;BME280;10749;46.296;7.524;2023-02-10T00:53:38;96660.13;;;1.14;33.13
21182;BME280;10749;46.296;7.524;2023-02-10T00:56:04;96669.31;;;1.04;33.16
21182;BME280;10749;46.296;7.524;2023-02-10T00:58:29;96661.66;;;1.01;33.23
21182;BME280;10749;46.296;7.524;2023-02-10T01:00:55;96658.88;;;1.04;33.08
21182;BME280;10749;46.296;7.524;2023-02-10T01:03:20;96658.75;;;1.07;32.97
21182;BME280;10749;46.296;7.524;2023-02-10T01:05:46;96666.88;;;1.01;32.79
21182;BME280;10749;46.296;7.524;2023-02-10T01:08:12;96654.91;;;0.97;32.71
21182;BME280;10749;46.296;7.524;2023-02-10T01:10:38;96656.31;;;0.86;33.17
21182;BME280;10749;46.296;7.524;2023-02-10T01:13:05;96651.09;;;0.86;33.20
21182;BME280;10749;46.296;7.524;2023-02-10T01:15:31;96660.34;;;0.92;33.06
21182;BME280;10749;46.296;7.524;2023-02-10T01:17:56;96663.97;;;0.89;33.40
21182;BME280;10749;46.296;7.524;2023-02-10T01:20:22;96659.50;;;0.91;33.34
21182;BME280;10749;46.296;7.524;2023-02-10T01:22:47;96673.16;;;0.97;33.16
21182;BME280;10749;46.296;7.524;2023-02-10T01:25:12;96675.03;;;0.95;33.47
21182;BME280;10749;46.296;7.524;2023-02-10T01:27:38;96669.63;;;0.98;33.23
21182;BME280;10749;46.296;7.524;2023-02-10T01:30:04;96679.00;;;1.02;33.05
21182;BME280;10749;46.296;7.524;2023-02-10T01:32:29;96680.00;;;0.99;33.14
21182;BME280;10749;46.296;7.524;2023-02-10T01:34:55;96683.69;;;0.95;33.19
21182;BME280;10749;46.296;7.524;2023-02-10T01:37:20;96686.28;;;0.95;33.37
21182;BME280;10749;46.296;7.524;2023-02-10T01:39:45;96681.88;;;0.96;33.31
21182;BME280;10749;46.296;7.524;2023-02-10T01:42:14;96680.06;;;0.98;32.90
21182;BME280;10749;46.296;7.524;2023-02-10T01:47:06;96679.44;;;0.92;33.34
21182;BME280;10749;46.296;7.524;2023-02-10T01:49:35;96676.84;;;0.92;33.38
21182;BME280;10749;46.296;7.524;2023-02-10T01:52:11;96675.16;;;0.91;33.51
21182;BME280;10749;46.296;7.524;2023-02-10T01:54:43;96678.38;;;0.97;33.35
21182;BME280;10749;46.296;7.524;2023-02-10T01:57:11;96678.22;;;1.00;33.43
21182;BME280;10749;46.296;7.524;2023-02-10T01:59:37;96670.38;;;1.00;33.50
21182;BME280;10749;46.296;7.524;2023-02-10T02:02:05;96671.63;;;0.92;33.45
21182;BME280;10749;46.296;7.524;2023-02-10T02:04:54;96674.41;;;0.89;33.37
21182;BME280;10749;46.296;7.524;2023-02-10T02:07:26;96670.09;;;0.88;33.50
21182;BME280;10749;46.296;7.524;2023-02-10T02:09:54;96666.56;;;0.89;33.30
21182;BME280;10749;46.296;7.524;2023-02-10T02:15:05;96666.75;;;0.86;33.33
21182;BME280;10749;46.296;7.524;2023-02-10T02:17:33;96670.19;;;0.87;33.18
21182;BME280;10749;46.296;7.524;2023-02-10T02:20:27;96667.31;;;0.91;33.16
21182;BME280;10749;46.296;7.524;2023-02-10T02:32:04;96666.03;;;0.83;33.38
21182;BME280;10749;46.296;7.524;2023-02-10T02:35:11;96671.63;;;0.75;33.38
21182;BME280;10749;46.296;7.524;2023-02-10T02:37:41;96666.63;;;0.71;33.60
21182;BME280;10749;46.296;7.524;2023-02-10T02:40:09;96669.16;;;0.72;33.60
21182;BME280;10749;46.296;7.524;2023-02-10T02:42:35;96677.63;;;0.77;33.79
21182;BME280;10749;46.296;7.524;2023-02-10T02:45:04;96677.91;;;0.71;33.76
21182;BME280;10749;46.296;7.524;2023-02-10T02:47:53;96672.84;;;0.68;33.58
21182;BME280;10749;46.296;7.524;2023-02-10T02:53:05;96677.59;;;0.60;33.73
21182;BME280;10749;46.296;7.524;2023-02-10T03:01:06;96674.69;;;0.83;33.44
21182;BME280;10749;46.296;7.524;2023-02-10T03:03:35;96676.69;;;0.78;33.64
21182;BME280;10749;46.296;7.524;2023-02-10T03:06:02;96679.91;;;0.66;33.45
21182;BME280;10749;46.296;7.524;2023-02-10T03:08:33;96685.69;;;0.54;33.65
21182;BME280;10749;46.296;7.524;2023-02-10T03:10:59;96686.00;;;0.48;33.79
21182;BME280;10749;46.296;7.524;2023-02-10T03:13:24;96690.59;;;0.43;34.06
21182;BME280;10749;46.296;7.524;2023-02-10T03:15:49;96695.44;;;0.51;34.02
21182;BME280;10749;46.296;7.524;2023-02-10T03:18:15;96700.41;;;0.55;33.48
21182;BME280;10749;46.296;7.524;2023-02-10T03:20:41;96705.84;;;0.51;33.09
21182;BME280;10749;46.296;7.524;2023-02-10T03:23:06;96705.94;;;0.49;33.39
21182;BME280;10749;46.296;7.524;2023-02-10T03:25:32;96705.16;;;0.47;33.65
21182;BME280;10749;46.296;7.524;2023-02-10T03:27:57;96697.50;;;0.44;33.39
21182;BME280;10749;46.296;7.524;2023-02-10T03:30:23;96709.63;;;0.45;33.45
21182;BME280;10749;46.296;7.524;2023-02-10T03:32:48;96706.16;;;0.44;33.17
21182;BME280;10749;46.296;7.524;2023-02-10T03:35:14;96698.41;;;0.43;33.12
21182;BME280;10749;46.296;7.524;2023-02-10T03:37:40;96703.56;;;0.44;33.12
21182;BME280;10749;46.296;7.524;2023-02-10T03:40:06;96701.50;;;0.51;33.20
21182;BME280;10749;46.296;7.524;2023-02-10T03:42:31;96703.88;;;0.56;33.21
21182;BME280;10749;46.296;7.524;2023-02-10T03:44:56;96705.56;;;0.57;33.25
21182;BME280;10749;46.296;7.524;2023-02-10T03:47:21;96701.97;;;0.59;33.26
21182;BME280;10749;46.296;7.524;2023-02-10T03:49:47;96695.44;;;0.51;33.40
21182;BME280;10749;46.296;7.524;2023-02-10T03:52:12;96699.78;;;0.50;33.00
21182;BME280;10749;46.296;7.524;2023-02-10T03:54:37;96691.91;;;0.52;32.78
21182;BME280;10749;46.296;7.524;2023-02-10T03:57:03;96696.91;;;0.56;33.31
21182;BME280;10749;46.296;7.524;2023-02-10T03:59:28;96692.31;;;0.61;33.13
21182;BME280;10749;46.296;7.524;2023-02-10T04:01:53;96701.06;;;0.60;33.61
21182;BME280;10749;46.296;7.524;2023-02-10T04:04:19;96704.28;;;0.65;33.41
21182;BME280;10749;46.296;7.524;2023-02-10T04:06:44;96706.66;;;0.70;33.55
21182;BME280;10749;46.296;7.524;2023-02-10T04:09:09;96711.50;;;0.77;33.66
21182;BME280;10749;46.296;7.524;2023-02-10T04:11:34;96710.28;;;0.84;33.65
21182;BME280;10749;46.296;7.524;2023-02-10T04:14:00;96703.22;;;0.86;33.53
21182;BME280;10749;46.296;7.524;2023-02-10T04:16:25;96709.44;;;0.84;33.59
21182;BME280;10749;46.296;7.524;2023-02-10T04:18:53;96721.84;;;0.79;33.78
21182;BME280;10749;46.296;7.524;2023-02-10T04:21:19;96721.63;;;0.66;33.90
21182;BME280;10749;46.296;7.524;2023-02-10T04:23:44;96723.59;;;0.61;33.64
21182;BME280;10749;46.296;7.524;2023-02-10T04:26:10;96736.84;;;0.57;33.31
21182;BME280;10749;46.296;7.524;2023-02-10T04:28:35;96729.41;;;0.49;33.27
21182;BME280;10749;46.296;7.524;2023-02-10T04:31:00;96727.00;;;0.44;33.29
21182;BME280;10749;46.296;7.524;2023-02-10T04:33:26;96729.34;;;0.32;33.63
21182;BME280;10749;46.296;7.524;2023-02-10T04:35:53;96735.47;;;0.31;33.64
21182;BME280;10749;46.296;7.524;2023-02-10T04:38:19;96730.25;;;0.31;33.89
21182;BME280;10749;46.296;7.524;2023-02-10T04:40:45;96732.22;;;0.26;33.99
21182;BME280;10749;46.296;7.524;2023-02-10T04:43:11;96734.06;;;0.24;34.12
21182;BME280;10749;46.296;7.524;2023-02-10T04:45:37;96729.91;;;0.20;34.11
21182;BME280;10749;46.296;7.524;2023-02-10T04:48:02;96728.16;;;0.20;33.89
21182;BME280;10749;46.296;7.524;2023-02-10T04:50:28;96724.91;;;0.15;33.92
21182;BME280;10749;46.296;7.524;2023-02-10T04:52:53;96724.22;;;0.12;33.72
21182;BME280;10749;46.296;7.524;2023-02-10T04:55:18;96727.72;;;0.11;33.85
21182;BME280;10749;46.296;7.524;2023-02-10T04:57:44;96724.44;;;0.07;34.04
21182;BME280;10749;46.296;7.524;2023-02-10T05:00:10;96725.53;;;0.02;34.31
21182;BME280;10749;46.296;7.524;2023-02-10T05:02:36;96727.88;;;0.08;34.17
21182;BME280;10749;46.296;7.524;2023-02-10T05:05:02;96729.50;;;0.10;33.90
21182;BME280;10749;46.296;7.524;2023-02-10T05:07:28;96732.09;;;0.10;34.08
21182;BME280;10749;46.296;7.524;2023-02-10T05:09:53;96740.59;;;0.14;33.88
21182;BME280;10749;46.296;7.524;2023-02-10T05:12:18;96738.16;;;0.11;34.09
21182;BME280;10749;46.296;7.524;2023-02-10T05:14:44;96738.91;;;0.13;34.21
21182;BME280;10749;46.296;7.524;2023-02-10T05:17:09;96737.03;;;0.16;34.42
21182;BME280;10749;46.296;7.524;2023-02-10T05:19:34;96742.63;;;0.26;34.19
21182;BME280;10749;46.296;7.524;2023-02-10T05:21:59;96738.06;;;0.31;34.09
21182;BME280;10749;46.296;7.524;2023-02-10T05:24:25;96744.66;;;0.38;34.12
21182;BME280;10749;46.296;7.524;2023-02-10T05:26:50;96743.13;;;0.34;34.08
21182;BME280;10749;46.296;7.524;2023-02-10T05:29:15;96745.25;;;0.26;34.23
21182;BME280;10749;46.296;7.524;2023-02-10T05:31:41;96742.63;;;0.26;33.83
21182;BME280;10749;46.296;7.524;2023-02-10T05:34:06;96736.31;;;0.13;34.17
21182;BME280;10749;46.296;7.524;2023-02-10T05:36:32;96739.84;;;0.12;33.97
21182;BME280;10749;46.296;7.524;2023-02-10T05:38:57;96740.13;;;0.06;34.27
21182;BME280;10749;46.296;7.524;2023-02-10T05:41:40;96735.19;;;-0.01;34.34
21182;BME280;10749;46.296;7.524;2023-02-10T05:44:06;96732.91;;;-0.08;34.42
21182;BME280;10749;46.296;7.524;2023-02-10T05:46:31;96731.97;;;-0.06;34.28
21182;BME280;10749;46.296;7.524;2023-02-10T05:48:56;96733.91;;;-0.11;34.51
21182;BME280;10749;46.296;7.524;2023-02-10T05:51:22;96734.91;;;-0.13;34.21
21182;BME280;10749;46.296;7.524;2023-02-10T05:53:47;96740.47;;;-0.21;34.28
21182;BME280;10749;46.296;7.524;2023-02-10T05:56:12;96738.69;;;-0.20;34.35
21182;BME280;10749;46.296;7.524;2023-02-10T05:58:37;96743.81;;;-0.19;34.27
21182;BME280;10749;46.296;7.524;2023-02-10T06:01:07;96743.63;;;-0.14;34.59
21182;BME280;10749;46.296;7.524;2023-02-10T06:03:33;96746.16;;;-0.13;34.44
21182;BME280;10749;46.296;7.524;2023-02-10T06:05:58;96753.19;;;-0.15;34.58
21182;BME280;10749;46.296;7.524;2023-02-10T06:08:24;96744.38;;;-0.12;34.38
21182;BME280;10749;46.296;7.524;2023-02-10T06:10:49;96753.34;;;-0.18;34.23
21182;BME280;10749;46.296;7.524;2023-02-10T06:13:14;96756.19;;;-0.24;34.50
21182;BME280;10749;46.296;7.524;2023-02-10T06:15:40;96765.69;;;-0.23;34.42
21182;BME280;10749;46.296;7.524;2023-02-10T06:18:05;96765.13;;;-0.29;34.64
21182;BME280;10749;46.296;7.524;2023-02-10T06:20:30;96772.00;;;-0.28;34.48
21182;BME280;10749;46.296;7.524;2023-02-10T06:22:55;96776.66;;;-0.35;34.73
21182;BME280;10749;46.296;7.524;2023-02-10T06:25:21;96774.75;;;-0.31;34.77
21182;BME280;10749;46.296;7.524;2023-02-10T06:27:46;96777.84;;;-0.42;34.99
21182;BME280;10749;46.296;7.524;2023-02-10T06:30:12;96773.19;;;-0.35;35.17
21182;BME280;10749;46.296;7.524;2023-02-10T06:32:37;96778.41;;;-0.35;34.93
21182;BME280;10749;46.296;7.524;2023-02-10T06:35:02;96781.91;;;-0.36;35.07
21182;BME280;10749;46.296;7.524;2023-02-10T06:37:28;96792.13;;;-0.32;35.11
21182;BME280;10749;46.296;7.524;2023-02-10T06:39:54;96799.16;;;-0.34;35.26
21182;BME280;10749;46.296;7.524;2023-02-10T06:42:19;96799.28;;;-0.37;34.78
21182;BME280;10749;46.296;7.524;2023-02-10T06:44:45;96795.19;;;-0.42;34.91
21182;BME280;10749;46.296;7.524;2023-02-10T06:47:10;96789.91;;;-0.41;34.94
21182;BME280;10749;46.296;7.524;2023-02-10T06:49:35;96795.06;;;-0.39;34.55
21182;BME280;10749;46.296;7.524;2023-02-10T06:52:02;96799.50;;;-0.41;34.84
21182;BME280;10749;46.296;7.524;2023-02-10T06:54:28;96798.84;;;-0.47;35.16
21182;BME280;10749;46.296;7.524;2023-02-10T06:56:53;96795.25;;;-0.44;35.19
21182;BME280;10749;46.296;7.524;2023-02-10T06:59:18;96799.69;;;-0.46;35.25
21182;BME280;10749;46.296;7.524;2023-02-10T07:01:44;96799.69;;;-0.46;35.32
21182;BME280;10749;46.296;7.524;2023-02-10T07:04:10;96798.91;;;-0.48;35.11
21182;BME280;10749;46.296;7.524;2023-02-10T07:06:35;96794.50;;;-0.46;34.96
21182;BME280;10749;46.296;7.524;2023-02-10T07:09:00;96803.34;;;-0.50;35.24
21182;BME280;10749;46.296;7.524;2023-02-10T07:11:29;96803.38;;;-0.52;35.34
21182;BME280;10749;46.296;7.524;2023-02-10T07:13:54;96805.00;;;-0.49;35.73
21182;BME280;10749;46.296;7.524;2023-02-10T07:16:19;96802.28;;;-0.46;35.62
21182;BME280;10749;46.296;7.524;2023-02-10T07:18:44;96800.97;;;-0.36;35.06
21182;BME280;10749;46.296;7.524;2023-02-10T07:21:10;96805.06;;;-0.30;35.28
21182;BME280;10749;46.296;7.524;2023-02-10T07:23:35;96809.16;;;-0.25;35.40
21182;BME280;10749;46.296;7.524;2023-02-10T07:26:01;96804.69;;;-0.21;35.47
21182;BME280;10749;46.296;7.524;2023-02-10T07:28:26;96808.91;;;-0.19;35.64
21182;BME280;10749;46.296;7.524;2023-02-10T07:30:51;96812.34;;;-0.18;35.39
21182;BME280;10749;46.296;7.524;2023-02-10T07:33:17;96820.72;;;-0.12;34.97
21182;BME280;10749;46.296;7.524;2023-02-10T07:35:42;96818.13;;;-0.12;34.99
21182;BME280;10749;46.296;7.524;2023-02-10T07:38:08;96819.75;;;-0.09;35.05
21182;BME280;10749;46.296;7.524;2023-02-10T07:40:33;96820.47;;;-0.06;34.74
21182;BME280;10749;46.296;7.524;2023-02-10T07:42:59;96823.97;;;-0.07;35.25
21182;BME280;10749;46.296;7.524;2023-02-10T07:45:24;96827.22;;;-0.02;35.13
21182;BME280;10749;46.296;7.524;2023-02-10T07:47:51;96827.59;;;0.10;35.15
21182;BME280;10749;46.296;7.524;2023-02-10T07:50:17;96826.53;;;0.14;35.14
21182;BME280;10749;46.296;7.524;2023-02-10T07:52:42;96822.72;;;0.21;35.10
21182;BME280;10749;46.296;7.524;2023-02-10T07:55:09;96819.22;;;0.22;35.21
21182;BME280;10749;46.296;7.524;2023-02-10T07:57:34;96825.94;;;0.27;35.13
21182;BME280;10749;46.296;7.524;2023-02-10T07:59:59;96820.66;;;0.29;35.32
21182;BME280;10749;46.296;7.524;2023-02-10T08:02:25;96822.06;;;0.36;35.25
21182;BME280;10749;46.296;7.524;2023-02-10T08:04:50;96822.22;;;0.33;35.54
21182;BME280;10749;46.296;7.524;2023-02-10T08:07:19;96829.09;;;0.34;34.99
21182;BME280;10749;46.296;7.524;2023-02-10T08:09:44;96825.13;;;0.25;35.24
21182;BME280;10749;46.296;7.524;2023-02-10T08:12:09;96819.88;;;0.27;34.71
21182;BME280;10749;46.296;7.524;2023-02-10T08:14:35;96822.47;;;0.27;34.76
21182;BME280;10749;46.296;7.524;2023-02-10T08:17:00;96825.97;;;0.26;34.88
21182;BME280;10749;46.296;7.524;2023-02-10T08:19:25;96818.66;;;0.34;35.35
21182;BME280;10749;46.296;7.524;2023-02-10T08:21:51;96814.59;;;0.47;35.56
21182;BME280;10749;46.296;7.524;2023-02-10T08:24:16;96819.88;;;0.64;35.33
21182;BME280;10749;46.296;7.524;2023-02-10T08:26:41;96809.66;;;0.78;35.04
21182;BME280;10749;46.296;7.524;2023-02-10T08:29:07;96813.31;;;0.91;34.90
21182;BME280;10749;46.296;7.524;2023-02-10T08:31:32;96812.53;;;1.08;35.36
21182;BME280;10749;46.296;7.524;2023-02-10T08:33:57;96817.69;;;1.27;35.30
21182;BME280;10749;46.296;7.524;2023-02-10T08:36:23;96824.00;;;1.40;35.36
21182;BME280;10749;46.296;7.524;2023-02-10T08:38:49;96816.63;;;1.48;35.56
21182;BME280;10749;46.296;7.524;2023-02-10T08:41:15;96817.84;;;1.58;35.30
21182;BME280;10749;46.296;7.524;2023-02-10T08:43:40;96816.75;;;1.62;35.51
21182;BME280;10749;46.296;7.524;2023-02-10T08:46:06;96820.78;;;1.69;35.08
21182;BME280;10749;46.296;7.524;2023-02-10T08:48:32;96816.13;;;1.74;35.24
21182;BME280;10749;46.296;7.524;2023-02-10T08:50:58;96815.66;;;1.83;35.42
21182;BME280;10749;46.296;7.524;2023-02-10T08:53:24;96816.91;;;1.94;35.33
21182;BME280;10749;46.296;7.524;2023-02-10T08:56:01;96813.53;;;2.07;35.19
21182;BME280;10749;46.296;7.524;2023-02-10T08:58:27;96808.09;;;2.12;35.65
21182;BME280;10749;46.296;7.524;2023-02-10T09:00:52;96802.56;;;2.18;35.37
21182;BME280;10749;46.296;7.524;2023-02-10T09:03:18;96807.28;;;2.27;35.27
21182;BME280;10749;46.296;7.524;2023-02-10T09:05:43;96804.25;;;2.35;35.28
21182;BME280;10749;46.296;7.524;2023-02-10T09:08:11;96796.19;;;2.39;35.33
21182;BME280;10749;46.296;7.524;2023-02-10T09:10:39;96806.97;;;2.49;35.42
21182;BME280;10749;46.296;7.524;2023-02-10T09:13:04;96803.00;;;2.57;35.31
21182;BME280;10749;46.296;7.524;2023-02-10T09:15:30;96807.97;;;2.62;35.23
21182;BME280;10749;46.296;7.524;2023-02-10T09:17:55;96805.53;;;2.59;35.40
21182;BME280;10749;46.296;7.524;2023-02-10T09:20:20;96804.53;;;2.61;35.32
21182;BME280;10749;46.296;7.524;2023-02-10T09:22:45;96805.13;;;2.66;34.98
21182;BME280;10749;46.296;7.524;2023-02-10T09:25:13;96800.75;;;2.67;35.12
21182;BME280;10749;46.296;7.524;2023-02-10T09:27:38;96797.63;;;2.76;34.98
21182;BME280;10749;46.296;7.524;2023-02-10T09:30:04;96793.31;;;2.75;34.75
21182;BME280;10749;46.296;7.524;2023-02-10T09:32:29;96789.34;;;2.84;34.96
21182;BME280;10749;46.296;7.524;2023-02-10T09:34:54;96789.56;;;2.95;35.16
21182;BME280;10749;46.296;7.524;2023-02-10T09:37:20;96785.53;;;3.05;35.22
21182;BME280;10749;46.296;7.524;2023-02-10T09:39:46;96787.97;;;3.08;35.05
21182;BME280;10749;46.296;7.524;2023-02-10T09:44:48;96782.88;;;3.20;35.13
21182;BME280;10749;46.296;7.524;2023-02-10T09:47:50;96786.03;;;3.41;35.09
21182;BME280;10749;46.296;7.524;2023-02-10T09:51:01;96787.75;;;3.56;34.90
21182;BME280;10749;46.296;7.524;2023-02-10T09:53:26;96782.28;;;3.75;35.34
21182;BME280;10749;46.296;7.524;2023-02-10T09:56:04;96782.13;;;3.92;35.14
21182;BME280;10749;46.296;7.524;2023-02-10T09:58:42;96773.13;;;3.96;35.05
21182;BME280;10749;46.296;7.524;2023-02-10T10:03:54;96773.97;;;4.25;34.94
21182;BME280;10749;46.296;7.524;2023-02-10T10:06:29;96767.81;;;4.26;35.14
21182;BME280;10749;46.296;7.524;2023-02-10T10:11:38;96758.41;;;4.50;34.71
21182;BME280;10749;46.296;7.524;2023-02-10T10:14:08;96756.69;;;4.63;34.92
21182;BME280;10749;46.296;7.524;2023-02-10T10:19:44;96747.81;;;5.32;34.84
21182;BME280;10749;46.296;7.524;2023-02-10T10:28:21;96748.03;;;5.94;34.86
21182;BME280;10749;46.296;7.524;2023-02-10T10:30:58;96744.44;;;5.95;34.53
21182;BME280;10749;46.296;7.524;2023-02-10T10:36:16;96732.44;;;6.16;34.91
21182;BME280;10749;46.296;7.524;2023-02-10T10:38:47;96729.69;;;6.30;34.89
21182;BME280;10749;46.296;7.524;2023-02-10T10:41:15;96718.59;;;6.50;34.52
21182;BME280;10749;46.296;7.524;2023-02-10T10:43:52;96723.47;;;6.68;34.80
21182;BME280;10749;46.296;7.524;2023-02-10T10:46:43;96723.38;;;6.69;34.49
21182;BME280;10749;46.296;7.524;2023-02-10T10:49:10;96714.78;;;6.55;34.49
21182;BME280;10749;46.296;7.524;2023-02-10T10:51:36;96717.28;;;6.69;34.45
21182;BME280;10749;46.296;7.524;2023-02-10T10:54:02;96696.69;;;6.86;34.32
21182;BME280;10749;46.296;7.524;2023-02-10T10:58:59;96697.47;;;7.00;34.18
21182;BME280;10749;46.296;7.524;2023-02-10T11:01:39;96695.56;;;7.02;34.10
21182;BME280;10749;46.296;7.524;2023-02-10T11:04:09;96700.75;;;7.14;34.01
21182;BME280;10749;46.296;7.524;2023-02-10T11:06:36;96688.84;;;7.32;33.75
21182;BME280;10749;46.296;7.524;2023-02-10T11:09:04;96687.34;;;7.41;33.92
21182;BME280;10749;46.296;7.524;2023-02-10T11:11:38;96682.44;;;7.48;33.87
21182;BME280;10749;46.296;7.524;2023-02-10T11:14:25;96670.94;;;7.71;33.73
21182;BME280;10749;46.296;7.524;2023-02-10T11:16:53;96684.41;;;7.90;33.67
21182;BME280;10749;46.296;7.524;2023-02-10T11:19:25;96677.59;;;7.99;33.61
21182;BME280;10749;46.296;7.524;2023-02-10T11:21:52;96673.00;;;8.12;33.58
21182;BME280;10749;46.296;7.524;2023-02-10T11:24:25;96673.63;;;8.26;33.38
21182;BME280;10749;46.296;7.524;2023-02-10T11:29:19;96661.47;;;8.68;33.67
21182;BME280;10749;46.296;7.524;2023-02-10T11:31:45;96662.84;;;8.84;33.43
21182;BME280;10749;46.296;7.524;2023-02-10T11:34:21;96667.16;;;9.16;33.38
21182;BME280;10749;46.296;7.524;2023-02-10T11:36:48;96656.78;;;9.36;33.40
21182;BME280;10749;46.296;7.524;2023-02-10T11:41:49;96647.81;;;9.27;32.85
21182;BME280;10749;46.296;7.524;2023-02-10T11:44:26;96653.78;;;9.50;32.81
21182;BME280;10749;46.296;7.524;2023-02-10T11:47:15;96646.31;;;9.76;33.21
21182;BME280;10749;46.296;7.524;2023-02-10T11:49:46;96637.97;;;10.10;33.10
21182;BME280;10749;46.296;7.524;2023-02-10T11:52:12;96637.69;;;10.44;33.14
21182;BME280;10749;46.296;7.524;2023-02-10T11:54:39;96636.78;;;10.64;33.08
21182;BME280;10749;46.296;7.524;2023-02-10T12:05:34;96617.44;;;11.21;32.20
21182;BME280;10749;46.296;7.524;2023-02-10T12:08:47;96611.41;;;11.29;32.31
21182;BME280;10749;46.296;7.524;2023-02-10T12:11:28;96606.41;;;11.26;32.34
21182;BME280;10749;46.296;7.524;2023-02-10T12:14:01;96601.81;;;11.08;32.22
21182;BME280;10749;46.296;7.524;2023-02-10T12:16:41;96593.00;;;11.37;32.16
21182;BME280;10749;46.296;7.524;2023-02-10T12:19:24;96594.25;;;11.33;32.44
21182;BME280;10749;46.296;7.524;2023-02-10T12:22:04;96584.75;;;11.40;31.96
21182;BME280;10749;46.296;7.524;2023-02-10T12:27:22;96568.31;;;11.92;32.04
21182;BME280;10749;46.296;7.524;2023-02-10T12:35:25;96555.69;;;12.22;32.56
21182;BME280;10749;46.296;7.524;2023-02-10T12:41:00;96538.31;;;12.37;30.96
21182;BME280;10749;46.296;7.524;2023-02-10T12:43:42;96538.31;;;12.37;30.70
21182;BME280;10749;46.296;7.524;2023-02-10T12:46:34;96533.31;;;12.34;30.25
21182;BME280;10749;46.296;7.524;2023-02-10T12:54:52;96529.25;;;13.01;30.67
21182;BME280;10749;46.296;7.524;2023-02-10T13:00:21;96526.72;;;13.34;30.25
21182;BME280;10749;46.296;7.524;2023-02-10T13:02:53;96530.09;;;13.36;29.75
21182;BME280;10749;46.296;7.524;2023-02-10T13:05:24;96522.56;;;13.58;30.04
21182;BME280;10749;46.296;7.524;2023-02-10T13:07:53;96521.50;;;13.76;29.65
21182;BME280;10749;46.296;7.524;2023-02-10T13:10:44;96525.38;;;13.82;29.29
21182;BME280;10749;46.296;7.524;2023-02-10T13:13:14;96513.63;;;14.01;29.24
21182;BME280;10749;46.296;7.524;2023-02-10T13:15:46;96517.59;;;13.97;28.92
21182;BME280;10749;46.296;7.524;2023-02-10T13:18:22;96523.25;;;13.94;28.70
21182;BME280;10749;46.296;7.524;2023-02-10T13:21:11;96514.91;;;13.88;28.52
21182;BME280;10749;46.296;7.524;2023-02-10T13:23:40;96518.19;;;13.74;28.90
21182;BME280;10749;46.296;7.524;2023-02-10T13:26:20;96516.91;;;13.86;28.67
21182;BME280;10749;46.296;7.524;2023-02-10T13:31:30;96506.66;;;14.50;28.30
21182;BME280;10749;46.296;7.524;2023-02-10T13:34:23;96505.16;;;14.47;28.71
21182;BME280;10749;46.296;7.524;2023-02-10T13:37:04;96514.34;;;14.69;28.65
21182;BME280;10749;46.296;7.524;2023-02-10T13:39:30;96509.53;;;14.89;28.06
21182;BME280;10749;46.296;7.524;2023-02-10T13:42:29;96514.53;;;15.08;28.05
21182;BME280;10749;46.296;7.524;2023-02-10T13:45:00;96502.88;;;14.85;28.47
21182;BME280;10749;46.296;7.524;2023-02-10T13:47:32;96498.53;;;14.92;28.09
21182;BME280;10749;46.296;7.524;2023-02-10T13:50:04;96502.22;;;15.23;28.02
21182;BME280;10749;46.296;7.524;2023-02-10T13:52:32;96507.16;;;15.58;27.98
21182;BME280;10749;46.296;7.524;2023-02-10T13:57:35;96491.19;;;16.36;28.34
21182;BME280;10749;46.296;7.524;2023-02-10T14:02:42;96511.47;;;20.30;33.32
21182;BME280;10749;46.296;7.524;2023-02-10T14:05:30;96519.31;;;22.94;31.78
21182;BME280;10749;46.296;7.524;2023-02-10T14:07:56;96516.16;;;23.91;29.31
21182;BME280;10749;46.296;7.524;2023-02-10T14:13:22;96517.72;;;24.42;24.61
21182;BME280;10749;46.296;7.524;2023-02-10T14:16:01;96524.63;;;22.76;23.72
21182;BME280;10749;46.296;7.524;2023-02-10T14:18:32;96517.69;;;22.93;25.45
21182;BME280;10749;46.296;7.524;2023-02-10T14:21:10;96526.63;;;23.25;23.67
21182;BME280;10749;46.296;7.524;2023-02-10T14:23:38;96519.69;;;23.67;22.12
21182;BME280;10749;46.296;7.524;2023-02-10T14:26:07;96513.78;;;22.89;21.79
21182;BME280;10749;46.296;7.524;2023-02-10T14:28:38;96524.22;;;22.66;21.05
21182;BME280;10749;46.296;7.524;2023-02-10T14:31:10;96518.84;;;21.56;18.45
21182;BME280;10749;46.296;7.524;2023-02-10T14:33:37;96511.03;;;18.43;16.48
21182;BME280;10749;46.296;7.524;2023-02-10T14:36:07;96506.34;;;15.50;17.47
21182;BME280;10749;46.296;7.524;2023-02-10T14:38:33;96501.91;;;13.85;17.93
21182;BME280;10749;46.296;7.524;2023-02-10T14:41:00;96504.53;;;12.82;18.75
21182;BME280;10749;46.296;7.524;2023-02-10T14:43:28;96497.09;;;12.33;19.46